Time;durP1;ratioP1;P1;durP2;ratioP2;P2;SDS_P1;SDS_P2;PMS_P1;PMS_P2;Temp;Humidity;BMP_temperature;BMP_pressure;BME280_temperature;BME280_humidity;BME280_pressure;Samples;Min_cycle;Max_cycle;Signal;HPM_P1;HPM_P2
2021/11/19 00:01:39;;;;;;;6.47;5.87;;;;;;;6.52;67.93;100545.06;5064642;28;20225;-80
2021/11/19 00:04:08;;;;;;;6.97;5.97;;;;;;;6.52;68.07;100539.75;5064923;28;20521;-81
2021/11/19 00:06:36;;;;;;;8.57;6.03;;;;;;;6.52;68.25;100545.06;5043567;28;20268;-81
2021/11/19 00:09:04;;;;;;;6.53;5.93;;;;;;;6.44;68.38;100529.94;5043441;28;20237;-80
2021/11/19 00:11:34;;;;;;;6.83;6.03;;;;;;;6.49;68.19;100529.41;5059856;28;20289;-79
2021/11/19 00:14:05;;;;;;;6.43;5.83;;;;;;;6.47;68.13;100531.44;5040703;28;20642;-80
2021/11/19 00:16:33;;;;;;;7.53;5.33;;;;;;;6.50;68.06;100531.09;5041697;28;20210;-81
2021/11/19 00:19:02;;;;;;;5.47;4.30;;;;;;;6.79;67.07;100536.63;5062244;28;20280;-80
2021/11/19 00:21:31;;;;;;;4.93;4.53;;;;;;;6.95;66.74;100538.41;5045745;28;20241;-81
2021/11/19 00:24:02;;;;;;;5.20;4.70;;;;;;;6.94;67.16;100539.41;5061453;28;20210;-80
2021/11/19 00:26:30;;;;;;;4.30;3.90;;;;;;;7.04;66.98;100532.88;5060627;28;20228;-81
2021/11/19 00:28:59;;;;;;;4.37;3.77;;;;;;;7.16;66.11;100535.13;5060647;28;20232;-81
2021/11/19 00:31:26;;;;;;;4.00;3.60;;;;;;;7.28;65.99;100539.06;5057312;23;20220;-81
2021/11/19 00:33:55;;;;;;;4.10;3.70;;;;;;;7.45;64.76;100536.09;5085382;28;21106;-80
2021/11/19 00:36:24;;;;;;;4.43;4.03;;;;;;;7.62;65.08;100539.47;5066396;28;20224;-81
2021/11/19 00:38:57;;;;;;;4.70;4.27;;;;;;;7.73;64.36;100543.56;5079825;23;20250;-81
2021/11/19 00:41:25;;;;;;;4.10;3.70;;;;;;;7.77;64.56;100535.03;5074621;28;20224;-81
2021/11/19 00:43:53;;;;;;;4.53;3.80;;;;;;;7.85;64.42;100521.59;5090525;28;20259;-81
2021/11/19 00:46:22;;;;;;;4.50;4.10;;;;;;;8.00;63.93;100531.47;5061740;22;20286;-81
2021/11/19 00:48:49;;;;;;;3.70;3.40;;;;;;;8.00;63.70;100532.31;5068915;28;20232;-81
2021/11/19 00:51:21;;;;;;;4.77;3.90;;;;;;;8.10;63.85;100537.41;5066389;28;20228;-80
2021/11/19 00:53:51;;;;;;;4.57;4.00;;;;;;;8.16;63.59;100529.50;5051909;28;20284;-80
2021/11/19 00:56:29;;;;;;;3.70;3.40;;;;;;;8.27;63.55;100529.03;5078245;22;20200;-80
2021/11/19 00:58:58;;;;;;;4.07;3.67;;;;;;;8.28;63.13;100514.69;5051668;28;20284;-81
2021/11/19 01:01:50;;;;;;;4.50;4.10;;;;;;;8.45;61.91;100514.50;5071622;28;20228;-81
2021/11/19 01:04:19;;;;;;;4.70;4.30;;;;;;;8.58;62.09;100486.19;5066645;28;20220;-80
2021/11/19 01:06:48;;;;;;;3.87;3.57;;;;;;;8.64;61.69;100496.09;5083005;28;20651;-81
2021/11/19 01:09:26;;;;;;;4.50;4.10;;;;;;;8.63;61.71;100494.44;5067649;28;20229;-81
2021/11/19 01:11:55;;;;;;;4.70;4.10;;;;;;;8.59;61.77;100495.81;5085989;28;20198;-81
2021/11/19 01:14:32;;;;;;;4.43;4.03;;;;;;;8.77;61.71;100500.78;5082441;28;20228;-81
2021/11/19 01:17:03;;;;;;;4.70;4.30;;;;;;;8.79;61.40;100504.94;5084162;28;20247;-81
2021/11/19 01:19:57;;;;;;;5.20;4.73;;;;;;;8.80;61.30;100487.88;5067106;28;20229;-81
2021/11/19 01:22:28;;;;;;;4.77;4.27;;;;;;;9.03;61.05;100492.25;5069710;28;20307;-81
2021/11/19 01:24:54;;;;;;;5.80;4.97;;;;;;;9.18;60.68;100471.66;5068909;28;20250;-81
2021/11/19 01:27:22;;;;;;;5.50;4.70;;;;;;;9.15;60.44;100464.81;5085395;28;20643;-82
2021/11/19 01:29:50;;;;;;;5.90;5.40;;;;;;;9.20;60.45;100477.63;5083142;28;20666;-81
2021/11/19 01:32:25;;;;;;;5.53;5.03;;;;;;;9.28;60.61;100480.19;5049632;28;21264;-81
2021/11/19 01:35:11;;;;;;;5.50;5.00;;;;;;;9.26;60.40;100469.69;5068053;28;20282;-82
2021/11/19 01:37:58;;;;;;;5.93;5.37;;;;;;;9.48;59.56;100456.28;5069341;28;20224;-81
2021/11/19 01:40:55;;;;;;;5.93;5.40;;;;;;;9.43;60.04;100464.88;5060149;28;20226;-81
2021/11/19 01:43:28;;;;;;;6.27;5.67;;;;;;;9.42;59.92;100465.09;5050748;28;20587;-80
2021/11/19 01:46:01;;;;;;;6.30;5.53;;;;;;;9.39;60.42;100444.06;5066133;28;20240;-81
2021/11/19 01:48:39;;;;;;;5.93;5.33;;;;;;;9.33;60.26;100456.38;5083123;28;20237;-81
2021/11/19 01:51:12;;;;;;;5.73;5.23;;;;;;;9.53;60.20;100462.72;5053232;23;20279;-81
2021/11/19 01:53:43;;;;;;;6.30;5.73;;;;;;;9.57;60.26;100455.13;5064013;28;20312;-80
2021/11/19 01:56:25;;;;;;;6.30;5.70;;;;;;;9.53;60.22;100461.88;5062065;28;20225;-80
2021/11/19 01:59:02;;;;;;;6.50;5.90;;;;;;;9.53;60.33;100459.22;5048951;28;20232;-80
2021/11/19 02:02:03;;;;;;;6.27;5.63;;;;;;;9.47;60.54;100458.13;5049514;23;20222;-81
2021/11/19 02:04:59;;;;;;;6.03;5.43;;;;;;;9.66;59.49;100452.13;5042853;28;20706;-80
2021/11/19 02:07:32;;;;;;;6.30;5.70;;;;;;;9.55;60.14;100435.78;5034505;28;20515;-81
2021/11/19 02:10:28;;;;;;;6.07;5.30;;;;;;;9.54;60.08;100421.56;5044029;28;20236;-81
2021/11/19 02:13:14;;;;;;;5.57;5.07;;;;;;;9.65;59.85;100430.94;5047117;28;20633;-81
2021/11/19 02:16:00;;;;;;;5.90;5.40;;;;;;;9.66;59.93;100444.09;5052473;28;20225;-80
2021/11/19 02:18:32;;;;;;;6.03;5.43;;;;;;;9.69;59.90;100432.19;5051320;28;20225;-81
2021/11/19 02:21:04;;;;;;;6.17;5.57;;;;;;;9.81;59.45;100427.94;5088536;22;20229;-83
2021/11/19 02:23:56;;;;;;;6.20;5.60;;;;;;;9.68;60.04;100423.34;5053837;28;20234;-80
2021/11/19 02:26:35;;;;;;;6.60;5.90;;;;;;;9.67;59.44;100410.13;5053446;28;20608;-80
2021/11/19 02:29:23;;;;;;;5.87;5.27;;;;;;;9.66;59.54;100414.66;5069888;28;20227;-81
2021/11/19 02:31:53;;;;;;;6.63;5.93;;;;;;;9.81;59.01;100425.28;5085919;22;20245;-81
2021/11/19 02:34:53;;;;;;;6.70;5.77;;;;;;;9.92;59.03;100419.38;5051432;28;20218;-84
2021/11/19 02:37:29;;;;;;;6.80;6.10;;;;;;;9.89;58.90;100418.97;5050533;28;20240;-83
2021/11/19 02:40:12;;;;;;;6.77;6.07;;;;;;;9.90;58.74;100409.88;5047633;28;20253;-81
2021/11/19 02:42:52;;;;;;;7.00;6.30;;;;;;;9.98;58.67;100413.25;5049308;28;20236;-81
2021/11/19 02:45:25;;;;;;;6.77;6.07;;;;;;;10.00;58.94;100419.22;5059949;22;20212;-81
2021/11/19 02:47:54;;;;;;;8.07;6.53;;;;;;;9.92;58.49;100400.66;5073440;28;20575;-81
2021/11/19 02:50:22;;;;;;;6.53;5.83;;;;;;;10.12;58.36;100411.47;5071433;28;20566;-85
2021/11/19 02:52:54;;;;;;;6.57;5.87;;;;;;;10.08;58.13;100388.78;5054956;28;20297;-80
2021/11/19 02:55:32;;;;;;;7.50;6.17;;;;;;;10.14;58.10;100404.06;5086774;28;20193;-81
2021/11/19 02:58:03;;;;;;;6.73;5.97;;;;;;;10.09;58.16;100398.47;5055181;28;20231;-81
2021/11/19 03:00:55;;;;;;;6.27;5.67;;;;;;;10.15;57.63;100393.19;5071230;28;20216;-81
2021/11/19 03:03:23;;;;;;;5.73;5.23;;;;;;;10.06;57.55;100401.56;5071854;28;20228;-80
2021/11/19 03:06:00;;;;;;;5.83;5.23;;;;;;;10.05;57.85;100400.72;5089438;22;20229;-81
2021/11/19 03:08:31;;;;;;;5.57;5.07;;;;;;;10.05;58.07;100402.56;5063256;28;20686;-81
2021/11/19 03:11:02;;;;;;;6.00;5.30;;;;;;;10.06;57.80;100399.69;5054897;23;20273;-81
2021/11/19 03:13:31;;;;;;;5.57;5.07;;;;;;;10.06;58.17;100402.38;5047663;28;20249;-81
2021/11/19 03:16:04;;;;;;;5.30;4.80;;;;;;;10.11;57.94;100404.47;5047469;28;20218;-81
2021/11/19 03:18:33;;;;;;;5.10;4.60;;;;;;;10.10;57.79;100398.28;5046711;28;20304;-81
2021/11/19 03:21:02;;;;;;;5.40;4.90;;;;;;;10.16;57.76;100412.78;5065162;28;20233;-82
2021/11/19 03:23:31;;;;;;;5.63;4.87;;;;;;;10.09;58.04;100409.19;5031630;28;20244;-81
2021/11/19 03:26:00;;;;;;;5.57;5.07;;;;;;;10.01;58.09;100396.78;5048759;28;20247;-81
2021/11/19 03:28:29;;;;;;;6.10;5.17;;;;;;;10.19;57.88;100393.63;5046477;28;20231;-81
2021/11/19 03:31:03;;;;;;;5.80;5.20;;;;;;;10.14;57.77;100393.34;5028532;28;20304;-81
2021/11/19 03:33:33;;;;;;;7.37;6.00;;;;;;;10.04;58.12;100398.22;5047593;28;20225;-81
2021/11/19 03:36:00;;;;;;;5.80;5.20;;;;;;;10.11;58.02;100402.63;5063621;28;20273;-80
2021/11/19 03:38:31;;;;;;;5.63;5.13;;;;;;;10.14;57.97;100409.41;5064990;28;20248;-80
2021/11/19 03:40:59;;;;;;;5.97;5.40;;;;;;;10.23;57.77;100394.88;5027738;28;20620;-81
2021/11/19 03:43:58;;;;;;;5.40;4.90;;;;;;;10.22;57.79;100398.56;5028245;28;20230;-80
2021/11/19 03:46:32;;;;;;;6.27;5.67;;;;;;;10.17;57.72;100406.41;5026809;28;20286;-83
2021/11/19 03:49:00;;;;;;;5.93;5.33;;;;;;;10.27;57.49;100406.00;5045700;28;20252;-81
2021/11/19 03:51:33;;;;;;;5.67;5.17;;;;;;;10.18;57.48;100402.66;5043945;28;20256;-81
2021/11/19 03:54:00;;;;;;;5.50;5.00;;;;;;;10.31;56.98;100401.94;5026699;28;20218;-81
2021/11/19 03:56:28;;;;;;;6.13;5.53;;;;;;;10.34;57.22;100410.38;5057837;28;20235;-81
2021/11/19 03:58:56;;;;;;;6.07;5.47;;;;;;;10.31;56.92;100400.03;5061385;28;20594;-81
2021/11/19 04:01:30;;;;;;;5.87;5.27;;;;;;;10.33;56.82;100406.03;5065028;28;20217;-80
2021/11/19 04:03:58;;;;;;;6.33;5.50;;;;;;;10.46;56.53;100415.97;5034400;28;20659;-83
2021/11/19 04:06:27;;;;;;;6.10;5.50;;;;;;;10.34;56.74;100407.72;5048918;28;20297;-82
2021/11/19 04:08:56;;;;;;;6.57;5.50;;;;;;;10.32;57.06;100412.41;5081797;28;20245;-81
2021/11/19 04:11:26;;;;;;;6.20;5.60;;;;;;;10.30;57.12;100411.81;5065192;28;20240;-81
2021/11/19 04:13:54;;;;;;;6.03;5.43;;;;;;;10.31;57.04;100397.38;5064916;28;20229;-80
2021/11/19 04:16:28;;;;;;;6.23;5.20;;;;;;;10.47;56.35;100397.03;5062482;28;20249;-81
2021/11/19 04:18:56;;;;;;;6.17;5.57;;;;;;;10.51;55.86;100395.59;5029365;28;20217;-81
2021/11/19 04:21:24;;;;;;;6.53;5.77;;;;;;;10.50;56.08;100409.19;5029585;28;20189;-83
2021/11/19 04:23:53;;;;;;;5.80;5.20;;;;;;;10.51;56.31;100414.38;5048883;23;20691;-81
2021/11/19 04:26:23;;;;;;;6.40;5.80;;;;;;;10.50;55.90;100415.38;5023665;28;20344;-81
2021/11/19 04:28:53;;;;;;;6.37;5.77;;;;;;;10.57;55.58;100415.41;5041176;28;20288;-81
2021/11/19 04:31:28;;;;;;;5.73;5.20;;;;;;;10.62;55.74;100412.13;5026414;28;20309;-81
2021/11/19 04:33:57;;;;;;;7.70;5.97;;;;;;;10.64;55.11;100391.34;5025204;28;20222;-82
2021/11/19 04:36:24;;;;;;;6.83;5.97;;;;;;;10.61;55.70;100395.22;5042083;28;20222;-81
2021/11/19 04:38:51;;;;;;;6.40;5.57;;;;;;;10.62;55.67;100379.97;5039077;28;20256;-83
2021/11/19 04:41:20;;;;;;;6.10;5.50;;;;;;;10.66;55.73;100395.47;5037335;23;20285;-82
2021/11/19 04:43:48;;;;;;;6.47;5.87;;;;;;;10.70;55.68;100404.75;5037357;23;20221;-81
2021/11/19 04:46:17;;;;;;;7.13;6.20;;;;;;;10.64;55.31;100386.78;5048005;28;20213;-81
2021/11/19 04:48:47;;;;;;;5.63;5.03;;;;;;;10.62;55.57;100371.94;5047490;28;20221;-81
2021/11/19 04:51:40;;;;;;;6.83;6.13;;;;;;;10.65;55.72;100385.75;5064898;28;20248;-81
2021/11/19 04:54:10;;;;;;;6.70;6.00;;;;;;;10.75;55.40;100394.25;5046627;28;20308;-82
2021/11/19 04:56:39;;;;;;;6.80;6.10;;;;;;;10.72;55.20;100373.22;5064967;28;20252;-81
2021/11/19 04:59:06;;;;;;;6.37;5.67;;;;;;;10.74;55.02;100373.00;5032305;28;20228;-83
2021/11/19 05:01:36;;;;;;;6.40;5.33;;;;;;;10.72;55.34;100386.63;5064013;28;20217;-81
2021/11/19 05:04:06;;;;;;;7.07;5.70;;;;;;;10.81;55.11;100384.56;5072097;22;20225;-81
2021/11/19 05:06:41;;;;;;;5.40;4.90;;;;;;;10.75;55.01;100382.69;5033998;28;20285;-82
2021/11/19 05:09:09;;;;;;;6.83;5.57;;;;;;;10.69;55.40;100364.72;5070692;28;20229;-84
2021/11/19 05:11:45;;;;;;;6.70;6.00;;;;;;;10.83;54.90;100371.78;5069543;28;20228;-84
2021/11/19 05:14:14;;;;;;;6.07;5.20;;;;;;;10.87;54.42;100362.31;5052610;28;20231;-84
2021/11/19 05:16:46;;;;;;;6.53;5.80;;;;;;;10.76;54.62;100365.59;5053800;23;20529;-82
2021/11/19 05:19:14;;;;;;;6.07;5.47;;;;;;;10.87;54.71;100363.13;5071961;28;20209;-82
2021/11/19 05:21:41;;;;;;;6.10;5.50;;;;;;;10.83;54.49;100369.94;5072442;28;20628;-82
2021/11/19 05:24:09;;;;;;;7.20;5.53;;;;;;;10.77;54.75;100354.69;5088648;28;20250;-82
2021/11/19 05:26:40;;;;;;;6.60;5.60;;;;;;;10.79;54.33;100359.81;5090165;28;20221;-81
2021/11/19 05:29:08;;;;;;;5.90;5.20;;;;;;;10.70;54.41;100345.78;5052510;28;20230;-81
2021/11/19 05:31:36;;;;;;;6.37;5.60;;;;;;;10.82;54.42;100354.06;5069082;28;20678;-80
2021/11/19 05:34:11;;;;;;;6.00;4.80;;;;;;;10.86;54.42;100341.91;5071792;28;20232;-84
2021/11/19 05:36:39;;;;;;;5.67;4.77;;;;;;;10.75;54.46;100335.28;5069560;28;20319;-81
2021/11/19 05:39:06;;;;;;;6.13;5.03;;;;;;;10.73;54.42;100323.91;5083929;28;20239;-80
2021/11/19 05:41:43;;;;;;;5.30;4.80;;;;;;;10.77;54.37;100329.72;5084934;28;20234;-81
2021/11/19 05:44:10;;;;;;;6.67;5.00;;;;;;;10.84;54.06;100341.28;5087104;28;20225;-83
2021/11/19 05:47:10;;;;;;;5.17;4.67;;;;;;;10.98;53.38;100334.88;5086216;28;20237;-80
2021/11/19 05:49:40;;;;;;;5.13;4.30;;;;;;;10.86;53.38;100334.69;5054122;28;20226;-81
2021/11/19 05:52:09;;;;;;;5.23;4.37;;;;;;;10.86;53.14;100326.66;5089347;28;20213;-82
2021/11/19 05:54:37;;;;;;;4.50;4.10;;;;;;;10.88;52.95;100335.28;5070172;28;20669;-81
2021/11/19 05:57:09;;;;;;;4.90;4.37;;;;;;;10.91;52.90;100337.59;5087173;28;20290;-81
2021/11/19 05:59:39;;;;;;;4.40;3.93;;;;;;;11.06;52.31;100331.22;5087367;28;20228;-81
2021/11/19 06:02:15;;;;;;;4.80;4.30;;;;;;;11.06;52.00;100328.53;5088399;28;20228;-83
2021/11/19 06:05:00;;;;;;;5.70;4.10;;;;;;;10.91;52.24;100323.34;5096567;23;20260;-82
2021/11/19 06:07:35;;;;;;;4.60;3.77;;;;;;;10.95;51.96;100322.75;5071183;28;20344;-83
2021/11/19 06:10:12;;;;;;;5.83;4.17;;;;;;;10.91;52.11;100332.22;5195672;22;20250;-80
2021/11/19 06:12:53;;;;;;;4.80;4.13;;;;;;;10.92;51.89;100339.22;5098595;23;20216;-80
2021/11/19 06:15:51;;;;;;;4.77;4.27;;;;;;;11.09;51.79;100346.88;5068272;28;20213;-81
2021/11/19 06:18:40;;;;;;;4.47;4.00;;;;;;;11.10;51.70;100341.31;5071059;28;20235;-81
2021/11/19 06:21:19;;;;;;;4.37;3.97;;;;;;;11.13;51.57;100329.34;5063790;23;20292;-80
2021/11/19 06:23:50;;;;;;;5.27;4.27;;;;;;;11.03;51.99;100329.75;5073142;28;20243;-80
2021/11/19 06:26:21;;;;;;;4.50;3.97;;;;;;;11.15;51.90;100329.97;5072827;28;20216;-84
2021/11/19 06:28:52;;;;;;;4.77;4.27;;;;;;;11.23;51.55;100335.13;5074942;28;20228;-81
2021/11/19 06:31:22;;;;;;;5.57;4.00;;;;;;;11.18;52.06;100349.16;5056731;28;20229;-81
2021/11/19 06:33:49;;;;;;;4.80;3.93;;;;;;;11.19;51.51;100353.50;5056622;28;20189;-81
2021/11/19 06:36:17;;;;;;;4.60;4.20;;;;;;;11.18;51.17;100330.38;5056499;28;20232;-81
2021/11/19 06:38:49;;;;;;;4.23;3.83;;;;;;;11.27;51.46;100339.88;5091569;28;20254;-81
2021/11/19 06:41:24;;;;;;;4.63;4.13;;;;;;;11.41;50.30;100352.25;5089941;28;20727;-81
2021/11/19 06:44:13;;;;;;;5.67;3.73;;;;;;;11.40;50.17;100369.38;5090057;28;20292;-81
2021/11/19 06:47:02;;;;;;;6.03;3.90;;;;;;;11.44;50.36;100354.50;5090893;28;20231;-81
2021/11/19 06:49:47;;;;;;;4.40;3.73;;;;;;;11.47;49.95;100362.16;5075664;28;20231;-82
2021/11/19 06:52:34;;;;;;;5.20;4.13;;;;;;;11.59;49.97;100374.91;5091085;28;20250;-81
2021/11/19 06:55:22;;;;;;;6.47;4.10;;;;;;;11.53;50.25;100387.31;5065713;28;20235;-81
2021/11/19 06:58:08;;;;;;;4.40;3.70;;;;;;;11.54;50.68;100388.13;5045425;28;20232;-81
2021/11/19 07:00:44;;;;;;;3.93;3.57;;;;;;;11.51;50.49;100373.28;5056290;28;20243;-81
2021/11/19 07:03:12;;;;;;;4.67;4.23;;;;;;;11.73;50.59;100390.00;5073319;28;20236;-81
2021/11/19 07:05:43;;;;;;;5.23;4.30;;;;;;;11.63;50.51;100386.88;5073327;28;20235;-80
2021/11/19 07:08:18;;;;;;;5.23;4.57;;;;;;;11.59;50.77;100389.16;5072474;28;20224;-81
2021/11/19 07:10:49;;;;;;;5.37;4.13;;;;;;;11.53;51.18;100399.91;5088716;28;20266;-83
2021/11/19 07:13:17;;;;;;;5.30;4.67;;;;;;;11.51;51.33;100399.28;5072023;28;20224;-81
2021/11/19 07:15:46;;;;;;;4.80;4.30;;;;;;;11.62;51.61;100406.72;5073474;28;20196;-81
2021/11/19 07:18:13;;;;;;;5.37;4.87;;;;;;;11.49;51.92;100394.13;5072776;28;20232;-81
2021/11/19 07:20:43;;;;;;;5.47;4.87;;;;;;;11.56;51.93;100402.19;5040844;28;20217;-81
2021/11/19 07:23:10;;;;;;;5.20;4.67;;;;;;;11.66;51.95;100391.88;5072900;28;20231;-81
2021/11/19 07:25:39;;;;;;;5.90;5.27;;;;;;;11.59;52.11;100397.22;5076630;22;20249;-82
2021/11/19 07:28:28;;;;;;;6.10;5.10;;;;;;;11.65;51.81;100407.13;5046160;28;20222;-81
2021/11/19 07:31:27;;;;;;;5.53;5.03;;;;;;;11.86;50.98;100403.41;5048939;28;20234;-81
2021/11/19 07:34:09;;;;;;;6.10;4.97;;;;;;;11.84;51.15;100400.97;5055133;23;20230;-81
2021/11/19 07:37:00;;;;;;;6.10;4.97;;;;;;;11.74;50.41;100402.41;5048040;28;20230;-82
2021/11/19 07:39:38;;;;;;;5.73;5.00;;;;;;;11.87;50.05;100400.53;5050077;28;20222;-82
2021/11/19 07:42:24;;;;;;;7.17;5.23;;;;;;;11.86;50.18;100409.59;5048220;28;20301;-81
2021/11/19 07:45:11;;;;;;;5.23;4.70;;;;;;;11.90;49.89;100416.22;5033153;28;20229;-81
2021/11/19 07:47:53;;;;;;;5.47;4.77;;;;;;;12.00;49.50;100429.22;5046705;28;20226;-81
2021/11/19 07:50:25;;;;;;;5.50;4.67;;;;;;;12.07;49.48;100419.28;5030716;28;20295;-81
2021/11/19 07:53:16;;;;;;;5.63;4.47;;;;;;;11.90;49.07;100400.09;5045909;28;20249;-81
2021/11/19 07:55:50;;;;;;;5.60;4.93;;;;;;;12.07;49.27;100424.66;5049386;28;20194;-80
2021/11/19 07:58:36;;;;;;;5.20;4.70;;;;;;;12.08;49.52;100420.13;5062238;23;20237;-81
2021/11/19 08:01:06;;;;;;;5.53;5.03;;;;;;;12.15;48.96;100420.91;5058916;23;20236;-80
2021/11/19 08:03:42;;;;;;;5.77;4.57;;;;;;;12.00;49.61;100417.63;5086584;22;20723;-80
2021/11/19 08:06:47;;;;;;;4.97;4.50;;;;;;;11.91;49.18;100415.19;5067204;23;20540;-80
2021/11/19 08:09:44;;;;;;;5.20;4.43;;;;;;;12.05;49.69;100424.03;5062701;23;20225;-80
2021/11/19 08:12:38;;;;;;;4.37;3.93;;;;;;;12.04;49.13;100417.00;5053308;28;20205;-80
2021/11/19 08:15:31;;;;;;;6.23;4.37;;;;;;;12.18;48.80;100429.38;5063843;23;20221;-80
2021/11/19 08:18:44;;;;;;;6.23;4.27;;;;;;;12.11;49.16;100431.25;5077582;23;20267;-80
2021/11/19 08:21:17;;;;;;;4.43;4.03;;;;;;;11.99;49.11;100419.50;5079302;23;20242;-80
2021/11/19 08:23:58;;;;;;;4.43;4.03;;;;;;;12.15;48.58;100431.66;5082850;23;20256;-80
2021/11/19 08:26:50;;;;;;;6.13;3.93;;;;;;;12.22;48.67;100422.56;5069269;22;20264;-80
2021/11/19 08:29:30;;;;;;;4.40;4.00;;;;;;;12.10;48.77;100408.13;5076874;22;20213;-80
2021/11/19 08:31:59;;;;;;;4.37;3.70;;;;;;;12.26;48.31;100422.97;5038620;28;20235;-80
2021/11/19 08:34:43;;;;;;;4.30;3.90;;;;;;;12.25;47.99;100413.25;5053703;28;20177;-83
2021/11/19 08:37:16;;;;;;;5.47;4.10;;;;;;;12.34;47.45;100409.28;5061428;28;20228;-81
2021/11/19 08:39:43;;;;;;;4.30;3.90;;;;;;;12.40;47.41;100413.00;5060129;28;20339;-81
2021/11/19 08:42:11;;;;;;;3.87;3.57;;;;;;;12.43;47.74;100416.06;5049894;28;20249;-78
2021/11/19 08:44:42;;;;;;;4.13;3.73;;;;;;;12.28;47.20;100418.19;5049536;28;20217;-80
2021/11/19 08:47:25;;;;;;;4.20;3.20;;;;;;;12.21;47.28;100383.31;5051550;28;20230;-80
2021/11/19 08:49:55;;;;;;;4.37;3.97;;;;;;;12.17;47.87;100382.06;5012568;28;20230;-82
2021/11/19 08:52:23;;;;;;;5.47;4.13;;;;;;;12.40;47.29;100427.25;5045472;28;20229;-82
2021/11/19 08:54:50;;;;;;;4.20;3.80;;;;;;;12.38;47.12;100425.81;5018236;28;20245;-81
2021/11/19 08:57:20;;;;;;;3.90;3.57;;;;;;;12.68;46.91;100438.53;5065852;28;20225;-82
2021/11/19 08:59:48;;;;;;;3.80;3.50;;;;;;;12.61;46.76;100424.25;5065936;28;20253;-82
2021/11/19 09:02:18;;;;;;;3.83;3.43;;;;;;;12.71;46.84;100434.56;5032660;28;20271;-79
2021/11/19 09:04:59;;;;;;;3.70;3.40;;;;;;;12.65;46.74;100432.72;5070889;23;20234;-81
2021/11/19 09:07:27;;;;;;;6.10;3.60;;;;;;;12.68;46.76;100424.25;5085168;28;20228;-82
2021/11/19 09:09:55;;;;;;;3.50;3.20;;;;;;;12.78;46.47;100421.94;5085170;28;20250;-81
2021/11/19 09:12:30;;;;;;;3.63;3.33;;;;;;;12.99;46.12;100435.03;5068732;28;20250;-80
2021/11/19 09:14:58;;;;;;;3.30;2.83;;;;;;;12.85;46.49;100428.09;5085470;28;20229;-81
2021/11/19 09:17:28;;;;;;;3.97;3.57;;;;;;;12.91;45.71;100440.69;5085139;28;20213;-78
2021/11/19 09:19:59;;;;;;;3.57;3.27;;;;;;;12.95;45.85;100436.53;5085392;28;20216;-81
2021/11/19 09:22:49;;;;;;;3.83;2.97;;;;;;;12.99;45.73;100410.84;5091988;22;20894;-81
2021/11/19 09:25:19;;;;;;;3.63;3.33;;;;;;;12.92;45.95;100441.50;5048679;28;20247;-81
2021/11/19 09:27:47;;;;;;;4.27;3.00;;;;;;;12.84;45.44;100418.38;5050734;28;20221;-82
2021/11/19 09:30:15;;;;;;;3.60;3.30;;;;;;;13.07;45.60;100434.78;5065366;28;20229;-81
2021/11/19 09:32:45;;;;;;;3.77;3.37;;;;;;;13.04;45.94;100442.47;5048507;28;20241;-82
2021/11/19 09:35:13;;;;;;;4.57;3.30;;;;;;;13.19;45.36;100453.78;5072400;22;20229;-81
2021/11/19 09:37:42;;;;;;;3.80;2.93;;;;;;;13.29;45.28;100454.16;5047366;28;20279;-82
2021/11/19 09:40:11;;;;;;;3.70;3.40;;;;;;;13.31;45.69;100448.53;5030655;28;20309;-81
2021/11/19 09:42:53;;;;;;;4.37;3.47;;;;;;;13.47;45.18;100446.16;5014748;28;20277;-81
2021/11/19 09:45:43;;;;;;;3.60;3.30;;;;;;;13.46;45.17;100443.66;5048322;28;20253;-80
2021/11/19 09:48:44;;;;;;;3.30;3.00;;;;;;;13.44;44.48;100449.25;5047794;28;20240;-81
2021/11/19 09:51:38;;;;;;;3.60;3.30;;;;;;;13.38;45.09;100460.91;5064355;28;20225;-80
2021/11/19 09:54:23;;;;;;;3.53;3.00;;;;;;;13.44;45.23;100459.19;5064279;28;20304;-81
2021/11/19 09:57:09;;;;;;;4.03;3.20;;;;;;;13.34;46.01;100466.97;5065098;28;20181;-81
2021/11/19 10:00:00;;;;;;;3.93;3.60;;;;;;;13.32;46.16;100471.72;5065821;28;20293;-81
2021/11/19 10:02:52;;;;;;;4.73;3.53;;;;;;;13.34;45.82;100453.50;5063736;28;20225;-81
2021/11/19 10:05:29;;;;;;;4.20;3.30;;;;;;;13.32;46.87;100456.41;5064615;28;20256;-81
2021/11/19 10:08:20;;;;;;;4.07;3.57;;;;;;;13.20;46.57;100436.63;5065103;28;20221;-81
2021/11/19 10:11:13;;;;;;;4.67;3.37;;;;;;;13.11;47.01;100441.41;5054466;28;20229;-81
2021/11/19 10:14:14;;;;;;;5.00;4.57;;;;;;;12.92;46.59;100436.97;5063551;28;20261;-81
2021/11/19 10:16:53;;;;;;;3.47;3.10;;;;;;;13.04;46.63;100434.41;5064093;28;20252;-81
2021/11/19 10:19:27;;;;;;;3.70;3.40;;;;;;;13.00;46.72;100420.56;5064706;28;20316;-80
2021/11/19 10:22:00;;;;;;;4.30;3.60;;;;;;;13.02;46.39;100414.94;5063966;28;20212;-81
2021/11/19 10:24:34;;;;;;;4.80;3.83;;;;;;;12.91;46.46;100400.34;5053860;28;20225;-81
2021/11/19 10:27:05;;;;;;;3.20;2.90;;;;;;;13.14;45.48;100381.81;5064441;28;20244;-81
2021/11/19 10:29:40;;;;;;;3.93;3.07;;;;;;;13.25;45.05;100391.00;5048085;28;20264;-81
2021/11/19 10:32:10;;;;;;;4.03;3.17;;;;;;;13.23;44.74;100387.75;5047256;28;20236;-81
2021/11/19 10:34:58;;;;;;;4.30;2.93;;;;;;;13.35;44.29;100383.28;5047630;28;20201;-80
2021/11/19 10:37:58;;;;;;;3.00;2.63;;;;;;;13.35;44.14;100350.16;5028396;28;20229;-80
2021/11/19 10:41:07;;;;;;;4.23;2.67;;;;;;;13.43;43.59;100366.06;5023329;28;20237;-81
2021/11/19 10:43:58;;;;;;;2.80;2.40;;;;;;;13.51;43.22;100345.06;5043741;28;20257;-80
2021/11/19 10:46:44;;;;;;;2.63;2.33;;;;;;;13.61;43.31;100353.47;5044339;28;20245;-80
2021/11/19 10:50:02;;;;;;;3.70;2.27;;;;;;;13.79;43.07;100354.53;5044517;28;20222;-81
2021/11/19 10:52:43;;;;;;;2.53;2.17;;;;;;;13.95;42.54;100345.88;5045528;28;20225;-81
2021/11/19 10:55:38;;;;;;;2.60;2.40;;;;;;;13.79;43.35;100357.22;5044675;28;20233;-81
2021/11/19 10:58:26;;;;;;;2.67;2.33;;;;;;;13.85;43.29;100367.09;5011092;28;20280;-81
2021/11/19 11:01:00;;;;;;;2.63;2.27;;;;;;;13.90;43.42;100364.56;5049436;28;20225;-81
2021/11/19 11:03:41;;;;;;;2.20;2.00;;;;;;;13.85;44.05;100357.16;5070152;28;20267;-80
2021/11/19 11:06:12;;;;;;;2.60;2.10;;;;;;;13.78;43.82;100361.78;5045886;28;20283;-81
2021/11/19 11:08:43;;;;;;;3.63;2.30;;;;;;;13.68;44.41;100335.34;5066066;28;20228;-81
2021/11/19 11:11:21;;;;;;;2.97;2.23;;;;;;;13.97;44.11;100341.88;5065363;28;20597;-81
2021/11/19 11:14:07;;;;;;;3.30;2.40;;;;;;;14.01;44.13;100323.41;5050615;28;20259;-81
2021/11/19 11:16:43;;;;;;;2.30;2.10;;;;;;;14.08;43.98;100327.69;5052199;28;20255;-80
2021/11/19 11:19:12;;;;;;;4.90;2.40;;;;;;;14.19;44.26;100320.69;5054030;22;20221;-81
2021/11/19 11:21:58;;;;;;;3.47;2.10;;;;;;;14.38;43.68;100311.56;5029164;28;20226;-82
2021/11/19 11:24:31;;;;;;;3.70;2.13;;;;;;;14.56;43.69;100318.78;5029949;28;20233;-80
2021/11/19 11:27:10;;;;;;;3.13;1.90;;;;;;;14.45;43.88;100312.31;5047425;28;20214;-81
2021/11/19 11:29:55;;;;;;;2.17;1.93;;;;;;;14.77;43.11;100294.00;5046954;28;20298;-80
2021/11/19 11:32:58;;;;;;;3.40;2.13;;;;;;;15.12;42.59;100304.03;5014791;28;20245;-80
2021/11/19 11:35:46;;;;;;;3.63;2.10;;;;;;;15.42;42.38;100308.28;5032315;28;20292;-80
2021/11/19 11:38:22;;;;;;;2.93;2.23;;;;;;;15.65;41.45;100304.78;5062868;28;20226;-81
2021/11/19 11:41:01;;;;;;;1.67;1.57;;;;;;;15.52;41.83;100299.63;5050766;28;20212;-81
2021/11/19 11:43:41;;;;;;;3.30;2.20;;;;;;;15.54;41.89;100312.91;5050084;28;20212;-81
2021/11/19 11:46:40;;;;;;;3.53;2.13;;;;;;;15.63;41.93;100303.41;5036504;28;20222;-81
2021/11/19 11:49:33;;;;;;;3.13;2.13;;;;;;;15.42;42.27;100311.00;5075536;23;20198;-78
2021/11/19 11:52:23;;;;;;;2.47;2.00;;;;;;;15.56;42.12;100306.19;5045937;28;20237;-80
2021/11/19 11:55:17;;;;;;;2.17;1.80;;;;;;;15.28;43.16;100306.03;5105844;22;20257;-79
2021/11/19 11:57:47;;;;;;;3.33;1.77;;;;;;;15.23;43.38;100314.84;5108573;23;20746;-80
2021/11/19 12:00:29;;;;;;;3.00;1.90;;;;;;;15.15;43.62;100299.00;5088556;28;20217;-80
2021/11/19 12:03:31;;;;;;;4.97;1.70;;;;;;;15.27;43.61;100299.00;5060634;28;20223;-79
2021/11/19 12:06:29;;;;;;;1.60;1.50;;;;;;;15.25;43.76;100296.56;5065560;23;20230;-79
2021/11/19 12:09:20;;;;;;;1.70;1.60;;;;;;;15.03;44.47;100281.13;5093603;28;20204;-80
2021/11/19 12:12:11;;;;;;;2.10;1.60;;;;;;;15.22;44.15;100293.47;5091275;28;20676;-80